createdAt,value
2022-09-17T04:02:53.901Z,99708.00
2022-09-17T04:05:22.075Z,99704.00
2022-09-17T04:07:50.171Z,99704.00
2022-09-17T04:10:18.520Z,99705.00
2022-09-17T04:12:46.504Z,99705.00
2022-09-17T04:15:14.474Z,99717.00
2022-09-17T04:17:42.540Z,99710.00
2022-09-17T04:20:12.097Z,99706.00
2022-09-17T04:22:40.048Z,99706.00
2022-09-17T04:25:09.179Z,99709.00
2022-09-17T04:27:37.112Z,99710.00
2022-09-17T04:30:06.035Z,99713.00
2022-09-17T04:32:34.103Z,99715.00
2022-09-17T04:35:02.058Z,99712.00
2022-09-17T04:37:31.348Z,99712.00
2022-09-17T04:39:59.743Z,99709.00
2022-09-17T04:42:27.661Z,99708.00
2022-09-17T04:44:55.680Z,99713.00
2022-09-17T04:47:23.645Z,99705.00
2022-09-17T04:49:51.964Z,99710.00
2022-09-17T04:52:19.915Z,99712.00
2022-09-17T04:54:49.433Z,99714.00
2022-09-17T04:57:17.469Z,99719.00
2022-09-17T04:59:45.488Z,99727.00
2022-09-17T05:02:13.513Z,99725.00
2022-09-17T05:04:41.472Z,99730.00
2022-09-17T05:07:13.275Z,99733.00
2022-09-17T05:09:42.042Z,99737.00
2022-09-17T05:12:11.384Z,99735.00
2022-09-17T05:14:39.339Z,99743.00
2022-09-17T05:17:07.326Z,99736.00
2022-09-17T05:19:35.282Z,99749.00
2022-09-17T05:22:03.232Z,99739.00
2022-09-17T05:24:31.180Z,99743.00
2022-09-17T05:26:59.161Z,99746.00
2022-09-17T05:29:28.461Z,99749.00
2022-09-17T05:31:57.141Z,99739.00
2022-09-17T05:34:25.121Z,99745.00
2022-09-17T05:36:53.109Z,99752.00
2022-09-17T05:39:22.593Z,99744.00
2022-09-17T05:41:50.526Z,99751.00
2022-09-17T05:44:18.558Z,99743.00
2022-09-17T05:46:48.960Z,99754.00
2022-09-17T05:49:17.017Z,99756.00
2022-09-17T05:51:45.073Z,99763.00
2022-09-17T05:54:13.131Z,99761.00
2022-09-17T05:56:41.091Z,99754.00
2022-09-17T05:59:09.063Z,99758.00
2022-09-17T06:01:37.182Z,99750.00
2022-09-17T06:04:06.485Z,99752.00
2022-09-17T06:06:34.458Z,99754.00
2022-09-17T06:09:02.632Z,99762.00
2022-09-17T06:11:30.596Z,99760.00
2022-09-17T06:13:58.571Z,99765.00
2022-09-17T06:16:26.990Z,99767.00
2022-09-17T06:18:55.106Z,99775.00
2022-09-17T06:21:24.557Z,99770.00
2022-09-17T06:23:52.792Z,99772.00
2022-09-17T06:26:20.861Z,99788.00
2022-09-17T06:28:48.834Z,99772.00
2022-09-17T06:31:16.776Z,99768.00
2022-09-17T06:33:44.699Z,99777.00
2022-09-17T06:36:14.332Z,99784.00
2022-09-17T06:38:44.294Z,99775.00
2022-09-17T06:41:14.437Z,99779.00
2022-09-17T06:43:42.545Z,99778.00
2022-09-17T06:46:12.522Z,99778.00
2022-09-17T06:48:40.544Z,99788.00
2022-09-17T06:51:11.862Z,99797.00
2022-09-17T06:53:40.888Z,99791.00
2022-09-17T06:56:10.969Z,99788.00
2022-09-17T06:58:41.603Z,99788.00
2022-09-17T07:01:12.208Z,99795.00
2022-09-17T07:03:42.743Z,99794.00
2022-09-17T07:06:12.443Z,99790.00
2022-09-17T07:08:41.538Z,99797.00
2022-09-17T07:11:11.139Z,99794.00
2022-09-17T07:13:39.085Z,99785.00
2022-09-17T07:16:07.718Z,99802.00
2022-09-17T07:18:35.943Z,99796.00
2022-09-17T07:21:07.770Z,99792.00
2022-09-17T07:23:38.269Z,99794.00
2022-09-17T07:26:12.986Z,99795.00
2022-09-17T07:28:41.646Z,99793.00
2022-09-17T07:31:15.852Z,99795.00
2022-09-17T07:33:45.580Z,99788.00
2022-09-17T07:36:17.696Z,99788.00
2022-09-17T07:38:45.950Z,99786.00
2022-09-17T07:41:17.708Z,99781.00
2022-09-17T07:43:46.676Z,99769.00
2022-09-17T07:46:17.553Z,99787.00
2022-09-17T07:48:46.381Z,99776.00
2022-09-17T07:51:17.884Z,99778.00
2022-09-17T07:53:46.750Z,99777.00
2022-09-17T07:56:16.370Z,99781.00
2022-09-17T07:58:44.368Z,99777.00
2022-09-17T08:01:16.607Z,99781.00
2022-09-17T08:03:50.206Z,99786.00
2022-09-17T08:06:21.418Z,99774.00
2022-09-17T08:08:50.239Z,99790.00
2022-09-17T08:11:44.722Z,99786.00
2022-09-17T08:14:13.873Z,99788.00
2022-09-17T08:16:42.124Z,99789.00
2022-09-17T08:19:10.853Z,99788.00
2022-09-17T08:21:39.077Z,99776.00
2022-09-17T08:24:07.592Z,99793.00
2022-09-17T08:26:36.937Z,99790.00
2022-09-17T08:29:05.479Z,99792.00
2022-09-17T08:31:33.667Z,99788.00
2022-09-17T08:34:01.725Z,99788.00
2022-09-17T08:36:29.924Z,99791.00
2022-09-17T08:38:58.624Z,99787.00
2022-09-17T08:41:46.118Z,99791.00
2022-09-17T08:44:25.969Z,99793.00
2022-09-17T08:47:01.565Z,99791.00
2022-09-17T08:49:37.589Z,99791.00
2022-09-17T08:52:47.224Z,99802.00
2022-09-17T08:55:31.371Z,99799.00
2022-09-17T08:58:27.126Z,99791.00
2022-09-17T09:01:05.971Z,99797.00
2022-09-17T09:03:52.201Z,99817.00
2022-09-17T09:06:28.306Z,99798.00
2022-09-17T09:09:03.792Z,99804.00
2022-09-17T09:11:33.182Z,99799.00
2022-09-17T09:14:19.910Z,99806.00
2022-09-17T09:16:50.283Z,99822.00
2022-09-17T09:19:25.454Z,99819.00
2022-09-17T09:22:04.630Z,99812.00
2022-09-17T09:24:42.551Z,99832.00
2022-09-17T09:27:19.393Z,99822.00
2022-09-17T09:30:04.153Z,99828.00
2022-09-17T09:32:56.630Z,99830.00
2022-09-17T09:35:28.319Z,99803.00
2022-09-17T09:38:04.717Z,99825.00
2022-09-17T09:40:39.012Z,99839.00
2022-09-17T09:43:19.590Z,99830.00
2022-09-17T09:46:21.694Z,99839.00
2022-09-17T09:49:06.826Z,99835.00
2022-09-17T09:51:52.717Z,99832.00
2022-09-17T09:54:44.429Z,99837.00
2022-09-17T09:57:16.247Z,99833.00
2022-09-17T09:59:44.346Z,99840.00
2022-09-17T10:02:14.634Z,99846.00
2022-09-17T10:04:42.656Z,99844.00
2022-09-17T10:07:12.873Z,99859.00
2022-09-17T10:09:47.339Z,99842.00
2022-09-17T10:12:19.327Z,99872.00
2022-09-17T10:14:48.369Z,99846.00
2022-09-17T10:17:24.310Z,99861.00
2022-09-17T10:20:22.272Z,99866.00
2022-09-17T10:22:52.371Z,99866.00
2022-09-17T10:25:31.560Z,99859.00
2022-09-17T10:28:05.313Z,99861.00
2022-09-17T10:30:33.676Z,99861.00
2022-09-17T10:33:22.883Z,99867.00
2022-09-17T10:36:07.729Z,99866.00
2022-09-17T10:38:39.690Z,99843.00
2022-09-17T10:41:18.671Z,99870.00
2022-09-17T10:43:47.120Z,99856.00
2022-09-17T10:46:27.550Z,99857.00
2022-09-17T10:49:12.125Z,99865.00
2022-09-17T10:51:40.433Z,99879.00
2022-09-17T10:54:51.722Z,99886.00
2022-09-17T10:57:37.139Z,99881.00
2022-09-17T11:00:16.881Z,99882.00
2022-09-17T11:03:19.330Z,99874.00
2022-09-17T11:06:18.324Z,99878.00
2022-09-17T11:09:02.560Z,99893.00
2022-09-17T11:11:48.108Z,99881.00
2022-09-17T11:14:47.557Z,99875.00
2022-09-17T11:17:43.263Z,99887.00
2022-09-17T11:20:30.621Z,99880.00
2022-09-17T11:23:27.279Z,99879.00
2022-09-17T11:26:01.081Z,99874.00
2022-09-17T11:28:53.549Z,99878.00
2022-09-17T11:31:38.418Z,99872.00
2022-09-17T11:34:30.724Z,99866.00
2022-09-17T11:37:06.996Z,99861.00
2022-09-17T11:40:00.758Z,99877.00
2022-09-17T11:42:37.298Z,99864.00
2022-09-17T11:45:15.939Z,99852.00
2022-09-17T11:47:52.703Z,99853.00
2022-09-17T11:50:26.782Z,99853.00
2022-09-17T11:53:09.300Z,99848.00
2022-09-17T11:55:49.148Z,99869.00
2022-09-17T11:58:29.139Z,99869.00
2022-09-17T12:01:11.498Z,99869.00
2022-09-17T12:03:46.033Z,99858.00
2022-09-17T12:06:21.100Z,99840.00
2022-09-17T12:09:02.703Z,99849.00
2022-09-17T12:11:42.133Z,99848.00
2022-09-17T12:14:21.047Z,99857.00
2022-09-17T12:16:54.399Z,99854.00
2022-09-17T12:19:32.036Z,99861.00
2022-09-17T12:22:09.518Z,99853.00
2022-09-17T12:24:40.324Z,99844.00
2022-09-17T12:27:23.109Z,99844.00
2022-09-17T12:30:12.263Z,99847.00
2022-09-17T12:33:10.088Z,99847.00
2022-09-17T12:36:11.838Z,99877.00
2022-09-17T12:39:36.390Z,99854.00
2022-09-17T12:42:22.907Z,99880.00
2022-09-17T12:45:17.074Z,99847.00
2022-09-17T12:48:30.993Z,99855.00
2022-09-17T12:51:19.656Z,99833.00
2022-09-17T12:54:06.477Z,99830.00
2022-09-17T12:56:56.029Z,99824.00
2022-09-17T12:59:32.525Z,99843.00
2022-09-17T13:02:09.699Z,99834.00
2022-09-17T13:05:09.084Z,99826.00
2022-09-17T13:08:25.284Z,99849.00
2022-09-17T13:11:30.725Z,99841.00
2022-09-17T13:14:11.581Z,99844.00
2022-09-17T13:16:46.457Z,99842.00
2022-09-17T13:19:31.628Z,99839.00
2022-09-17T13:22:06.971Z,99836.00
2022-09-17T13:24:36.743Z,99833.00
2022-09-17T13:27:06.748Z,99849.00
2022-09-17T13:30:01.342Z,99828.00
2022-09-17T13:32:52.865Z,99824.00
2022-09-17T13:35:52.332Z,99838.00
2022-09-17T13:38:24.247Z,99835.00
2022-09-17T13:41:13.771Z,99847.00
2022-09-17T13:43:47.676Z,99840.00
2022-09-17T13:46:24.969Z,99837.00
2022-09-17T13:49:01.955Z,99834.00
2022-09-17T13:51:58.214Z,99834.00
2022-09-17T13:54:39.019Z,99826.00
2022-09-17T13:57:17.089Z,99831.00
2022-09-17T13:59:56.819Z,99834.00
2022-09-17T14:02:37.542Z,99826.00
2022-09-17T14:05:35.182Z,99830.00
2022-09-17T14:08:31.078Z,99833.00
2022-09-17T14:11:03.795Z,99835.00
2022-09-17T14:13:45.062Z,99825.00
2022-09-17T14:16:40.384Z,99829.00
2022-09-17T14:19:36.850Z,99812.00
2022-09-17T14:22:17.135Z,99818.00
2022-09-17T14:24:52.426Z,99807.00
2022-09-17T14:27:50.303Z,99807.00
2022-09-17T14:30:21.955Z,99817.00
2022-09-17T14:33:03.512Z,99809.00
2022-09-17T14:35:38.111Z,99809.00
2022-09-17T14:38:15.217Z,99818.00
2022-09-17T14:40:47.188Z,99837.00
2022-09-17T14:43:23.091Z,99842.00
2022-09-17T14:45:54.517Z,99850.00
2022-09-17T14:48:32.718Z,99847.00
2022-09-17T14:51:33.016Z,99866.00
2022-09-17T14:54:21.885Z,99853.00
2022-09-17T14:56:57.304Z,99852.00
2022-09-17T14:59:48.247Z,99860.00
2022-09-17T15:02:38.144Z,99850.00
2022-09-17T15:05:31.604Z,99863.00
2022-09-17T15:08:12.781Z,99848.00
2022-09-17T15:10:52.537Z,99848.00
2022-09-17T15:13:27.232Z,99840.00
2022-09-17T15:16:03.482Z,99848.00
2022-09-17T15:18:40.100Z,99854.00
2022-09-17T15:21:23.702Z,99838.00
2022-09-17T15:23:55.695Z,99841.00
2022-09-17T15:26:36.460Z,99841.00
2022-09-17T15:29:06.513Z,99852.00
2022-09-17T15:31:36.829Z,99848.00
2022-09-17T15:34:05.188Z,99856.00
2022-09-17T15:36:33.442Z,99851.00
2022-09-17T15:39:01.449Z,99860.00
2022-09-17T15:41:33.963Z,99853.00
2022-09-17T15:44:29.692Z,99853.00
2022-09-17T15:47:49.141Z,99854.00
2022-09-17T15:50:20.865Z,99849.00
2022-09-17T15:52:49.837Z,99852.00
2022-09-17T15:55:34.142Z,99845.00
2022-09-17T15:58:19.937Z,99844.00
2022-09-17T16:00:48.521Z,99841.00
2022-09-17T16:04:22.782Z,99844.00
2022-09-17T16:07:30.321Z,99861.00
2022-09-17T16:09:59.354Z,99848.00
2022-09-17T16:12:29.754Z,99853.00
2022-09-17T16:15:01.686Z,99867.00
2022-09-17T16:17:35.483Z,99859.00
2022-09-17T16:20:21.902Z,99862.00
2022-09-17T16:22:50.919Z,99868.00
2022-09-17T16:25:25.026Z,99866.00
2022-09-17T16:27:58.245Z,99867.00
2022-09-17T16:30:27.629Z,99848.00
2022-09-17T16:32:55.686Z,99868.00
2022-09-17T16:35:27.157Z,99877.00
2022-09-17T16:37:57.671Z,99867.00
2022-09-17T16:40:29.029Z,99862.00
2022-09-17T16:42:57.067Z,99869.00
2022-09-17T16:45:28.883Z,99868.00
2022-09-17T16:47:59.722Z,99867.00
2022-09-17T16:50:28.173Z,99872.00
2022-09-17T16:52:56.148Z,99875.00
2022-09-17T16:55:24.548Z,99865.00
2022-09-17T16:57:52.793Z,99872.00
2022-09-17T17:00:22.546Z,99869.00
2022-09-17T17:02:55.973Z,99880.00
2022-09-17T17:05:27.379Z,99865.00
2022-09-17T17:07:56.528Z,99882.00
2022-09-17T17:10:26.426Z,99870.00
2022-09-17T17:12:54.534Z,99855.00
2022-09-17T17:15:22.637Z,99855.00
2022-09-17T17:17:50.875Z,99856.00
2022-09-17T17:20:19.416Z,99878.00
2022-09-17T17:22:50.636Z,99858.00
2022-09-17T17:25:18.998Z,99853.00
2022-09-17T17:27:46.977Z,99862.00
2022-09-17T17:30:17.543Z,99852.00
2022-09-17T17:32:51.033Z,99846.00
2022-09-17T17:35:19.815Z,99865.00
2022-09-17T17:37:49.188Z,99853.00
2022-09-17T17:40:17.536Z,99851.00
2022-09-17T17:42:47.588Z,99853.00
2022-09-17T17:45:15.833Z,99850.00
2022-09-17T17:47:43.831Z,99851.00
2022-09-17T17:50:11.879Z,99839.00
2022-09-17T17:52:43.371Z,99860.00
2022-09-17T17:55:12.786Z,99853.00
2022-09-17T17:57:41.285Z,99841.00
2022-09-17T18:00:12.577Z,99855.00
2022-09-17T18:02:40.849Z,99848.00
2022-09-17T18:05:11.607Z,99855.00
2022-09-17T18:07:39.789Z,99864.00
2022-09-17T18:10:09.776Z,99866.00
2022-09-17T18:12:39.146Z,99861.00
2022-09-17T18:15:08.710Z,99869.00
2022-09-17T18:17:36.813Z,99882.00
2022-09-17T18:20:06.329Z,99878.00
2022-09-17T18:22:34.424Z,99879.00
2022-09-17T18:25:02.505Z,99884.00
2022-09-17T18:27:30.491Z,99879.00
2022-09-17T18:29:59.778Z,99875.00
2022-09-17T18:32:28.040Z,99877.00
2022-09-17T18:34:55.979Z,99870.00
2022-09-17T18:37:24.012Z,99862.00
2022-09-17T18:39:59.801Z,99880.00
2022-09-17T18:42:27.910Z,99877.00
2022-09-17T18:44:56.044Z,99870.00
2022-09-17T18:47:25.425Z,99880.00
2022-09-17T18:49:53.414Z,99877.00
2022-09-17T18:52:21.456Z,99870.00
2022-09-17T18:54:49.564Z,99880.00
2022-09-17T18:57:17.628Z,99869.00
2022-09-17T18:59:45.678Z,99877.00
2022-09-17T19:02:14.123Z,99870.00
2022-09-17T19:04:43.433Z,99885.00
2022-09-17T19:07:30.995Z,99869.00
2022-09-17T19:09:58.991Z,99884.00
2022-09-17T19:12:26.952Z,99882.00
2022-09-17T19:14:55.235Z,99879.00
2022-09-17T19:17:23.160Z,99890.00
2022-09-17T19:19:52.519Z,99890.00
2022-09-17T19:22:20.812Z,99883.00
2022-09-17T19:24:48.805Z,99886.00
2022-09-17T19:27:16.822Z,99888.00
2022-09-17T19:29:44.822Z,99878.00
2022-09-17T19:32:13.284Z,99875.00
2022-09-17T19:34:42.531Z,99869.00
2022-09-17T19:37:11.838Z,99882.00
2022-09-17T19:39:39.770Z,99874.00
2022-09-17T19:42:08.462Z,99882.00
2022-09-17T19:44:36.481Z,99885.00
2022-09-17T19:47:04.684Z,99872.00
2022-09-17T19:49:32.629Z,99870.00
2022-09-17T19:52:00.637Z,99869.00
2022-09-17T19:54:29.932Z,99871.00
2022-09-17T19:56:57.893Z,99867.00
2022-09-17T19:59:25.843Z,99863.00
2022-09-17T20:01:53.828Z,99872.00
2022-09-17T20:04:21.899Z,99871.00
2022-09-17T20:06:49.888Z,99869.00
2022-09-17T20:09:17.902Z,99858.00
2022-09-17T20:11:47.633Z,99847.00
2022-09-17T20:14:15.665Z,99855.00
2022-09-17T20:16:44.968Z,99858.00
2022-09-17T20:19:17.138Z,99859.00
2022-09-17T20:21:45.120Z,99856.00
2022-09-17T20:24:13.274Z,99854.00
2022-09-17T20:26:41.718Z,99839.00
2022-09-17T20:29:11.036Z,99847.00
2022-09-17T20:31:39.273Z,99844.00
2022-09-17T20:34:07.382Z,99843.00
2022-09-17T20:36:36.453Z,99845.00
2022-09-17T20:39:12.210Z,99853.00
2022-09-17T20:41:42.276Z,99852.00
2022-09-17T20:44:11.629Z,99854.00
2022-09-17T20:46:39.756Z,99852.00
2022-09-17T20:49:07.785Z,99855.00
2022-09-17T20:51:36.151Z,99860.00
2022-09-17T20:54:04.886Z,99856.00
2022-09-17T20:56:35.746Z,99854.00
2022-09-17T20:59:14.127Z,99857.00
